createdAt,value
2023-01-12T00:00:27.550Z,0
2023-01-12T00:02:56.282Z,0
2023-01-12T00:04:10.553Z,0
2023-01-12T00:05:24.830Z,0
2023-01-12T00:06:39.254Z,0
2023-01-12T00:07:53.572Z,0
2023-01-12T00:09:07.853Z,0
2023-01-12T00:10:22.141Z,0
2023-01-12T00:11:36.543Z,0
2023-01-12T00:12:50.869Z,0
2023-01-12T00:14:05.138Z,0
2023-01-12T00:15:19.426Z,0
2023-01-12T00:16:33.895Z,0
2023-01-12T00:17:48.227Z,0
2023-01-12T00:19:01.584Z,0
2023-01-12T00:20:15.849Z,0
2023-01-12T00:21:30.259Z,0
2023-01-12T00:22:44.579Z,0
2023-01-12T00:23:58.880Z,0
2023-01-12T00:25:13.143Z,0
2023-01-12T00:26:27.556Z,0
2023-01-12T00:27:41.877Z,0
2023-01-12T00:28:56.155Z,0
2023-01-12T00:30:10.435Z,0
2023-01-12T00:31:24.855Z,0
2023-01-12T00:32:39.176Z,0
2023-01-12T00:33:53.450Z,0
2023-01-12T00:35:07.732Z,0
2023-01-12T00:36:22.149Z,0
2023-01-12T00:37:36.470Z,0
2023-01-12T00:38:50.753Z,0
2023-01-12T00:40:05.036Z,0
2023-01-12T00:41:19.427Z,0
2023-01-12T00:42:33.765Z,0
2023-01-12T00:43:48.045Z,0
2023-01-12T00:45:02.332Z,0
2023-01-12T00:46:16.733Z,0
2023-01-12T00:47:31.060Z,0
2023-01-12T00:48:45.333Z,0
2023-01-12T00:49:59.676Z,0
2023-01-12T00:51:14.077Z,0
2023-01-12T00:52:28.417Z,0
2023-01-12T00:53:41.817Z,0
2023-01-12T00:56:10.555Z,0
2023-01-12T00:57:24.834Z,1
2023-01-12T00:58:38.158Z,1
2023-01-12T00:59:52.435Z,0
2023-01-12T01:01:06.838Z,0
2023-01-12T01:03:35.446Z,0
2023-01-12T01:04:49.726Z,0
2023-01-12T01:06:04.127Z,0
2023-01-12T01:07:18.469Z,0
2023-01-12T01:08:32.744Z,0
2023-01-12T01:09:47.021Z,0
2023-01-12T01:11:01.420Z,0
2023-01-12T01:12:15.761Z,0
2023-01-12T01:13:30.038Z,0
2023-01-12T01:14:44.318Z,0
2023-01-12T01:15:58.718Z,0
2023-01-12T01:18:27.336Z,0
2023-01-12T01:19:41.610Z,0
2023-01-12T01:20:56.019Z,0
2023-01-12T01:22:10.000Z,0
2023-01-12T01:23:24.627Z,0
2023-01-12T01:24:38.896Z,0
2023-01-12T01:25:53.307Z,0
2023-01-12T01:27:07.628Z,0
2023-01-12T01:28:21.914Z,0
2023-01-12T01:29:36.262Z,0
2023-01-12T01:30:50.655Z,0
2023-01-12T01:32:05.006Z,0
2023-01-12T01:33:18.395Z,0
2023-01-12T01:34:31.734Z,0
2023-01-12T01:35:46.059Z,0
2023-01-12T01:37:00.348Z,0
2023-01-12T01:39:28.991Z,1
2023-01-12T01:40:43.271Z,0
2023-01-12T01:41:57.557Z,0
2023-01-12T01:43:11.843Z,0
2023-01-12T01:44:26.255Z,0
2023-01-12T01:45:40.580Z,0
2023-01-12T01:46:54.844Z,0
2023-01-12T01:48:09.139Z,0
2023-01-12T01:49:23.534Z,0
2023-01-12T01:50:37.857Z,0
2023-01-12T01:51:52.151Z,0
2023-01-12T01:53:06.435Z,0
2023-01-12T01:54:20.846Z,0
2023-01-12T01:55:35.151Z,0
2023-01-12T01:56:49.432Z,0
2023-01-12T01:58:03.726Z,0
2023-01-12T01:59:18.128Z,0
2023-01-12T02:00:32.425Z,0
2023-01-12T02:01:46.697Z,0
2023-01-12T02:03:00.980Z,0
2023-01-12T02:04:15.402Z,0
2023-01-12T02:05:29.784Z,0
2023-01-12T02:06:43.167Z,0
2023-01-12T02:07:57.507Z,0
2023-01-12T02:09:11.906Z,0
2023-01-12T02:10:26.242Z,0
2023-01-12T02:11:39.597Z,0
2023-01-12T02:12:53.868Z,0
2023-01-12T02:14:08.289Z,0
2023-01-12T02:15:22.607Z,0
2023-01-12T02:16:36.845Z,1
2023-01-12T02:17:51.087Z,1
2023-01-12T02:19:05.330Z,1
2023-01-12T02:20:19.617Z,1
2023-01-12T02:21:33.863Z,1
2023-01-12T02:22:48.094Z,1
2023-01-12T02:24:02.326Z,1
2023-01-12T02:25:16.534Z,1
2023-01-12T02:26:30.842Z,1
2023-01-12T02:27:45.078Z,1
2023-01-12T02:28:59.359Z,0
2023-01-12T02:30:13.690Z,0
2023-01-12T02:31:27.978Z,0
2023-01-12T02:32:42.373Z,0
2023-01-12T02:33:56.703Z,0
2023-01-12T02:35:10.929Z,1
2023-01-12T02:36:25.159Z,1
2023-01-12T02:37:39.431Z,0
2023-01-12T02:38:53.847Z,0
2023-01-12T02:40:08.169Z,0
2023-01-12T02:41:22.446Z,0
2023-01-12T02:42:36.779Z,0
2023-01-12T02:43:51.186Z,0
2023-01-12T02:45:05.539Z,0
2023-01-12T02:46:19.863Z,0
2023-01-12T02:47:33.217Z,0
2023-01-12T02:48:47.619Z,0
2023-01-12T02:50:01.958Z,0
2023-01-12T02:51:16.235Z,0
2023-01-12T02:52:30.520Z,0
2023-01-12T02:53:44.925Z,0
2023-01-12T02:54:59.253Z,0
2023-01-12T02:56:13.536Z,0
2023-01-12T02:57:27.812Z,0
2023-01-12T02:58:42.216Z,0
2023-01-12T02:59:56.545Z,0
2023-01-12T03:01:10.811Z,0
2023-01-12T03:02:25.139Z,0
2023-01-12T03:04:53.841Z,0
2023-01-12T03:06:08.165Z,0
2023-01-12T03:07:22.441Z,0
2023-01-12T03:08:36.665Z,1
2023-01-12T03:09:51.077Z,0
2023-01-12T03:11:05.388Z,0
2023-01-12T03:12:19.678Z,0
2023-01-12T03:13:33.957Z,0
2023-01-12T03:14:48.319Z,3
2023-01-12T03:16:02.547Z,1
2023-01-12T03:17:16.833Z,0
2023-01-12T03:18:31.172Z,0
2023-01-12T03:19:45.526Z,1
2023-01-12T03:20:59.871Z,0
2023-01-12T03:22:13.275Z,0
2023-01-12T03:23:26.668Z,0
2023-01-12T03:24:40.966Z,1
2023-01-12T03:25:54.300Z,0
2023-01-12T03:27:08.547Z,1
2023-01-12T03:29:37.222Z,0
2023-01-12T03:30:51.627Z,0
2023-01-12T03:32:05.881Z,1
2023-01-12T03:33:20.158Z,0
2023-01-12T03:34:34.577Z,0
2023-01-12T03:35:48.905Z,0
2023-01-12T03:37:03.174Z,0
2023-01-12T03:38:17.473Z,0
2023-01-12T03:39:31.871Z,0
2023-01-12T03:40:46.148Z,1
2023-01-12T03:42:00.371Z,1
2023-01-12T03:43:14.693Z,0
2023-01-12T03:44:28.948Z,1
2023-01-12T03:45:43.301Z,1
2023-01-12T03:46:57.596Z,0
2023-01-12T03:48:11.860Z,0
2023-01-12T03:49:26.153Z,0
2023-01-12T03:50:40.500Z,1
2023-01-12T03:51:54.800Z,0
2023-01-12T03:53:09.078Z,0
2023-01-12T03:54:23.360Z,0
2023-01-12T03:55:37.769Z,0
2023-01-12T03:56:52.091Z,0
2023-01-12T03:58:06.362Z,0
2023-01-12T03:59:20.653Z,0
2023-01-12T04:00:35.054Z,0
2023-01-12T04:01:49.392Z,0
2023-01-12T04:03:03.661Z,0
2023-01-12T04:04:17.946Z,0
2023-01-12T04:05:32.346Z,0
2023-01-12T04:06:46.682Z,0
2023-01-12T04:08:00.960Z,0
2023-01-12T04:09:15.238Z,0
2023-01-12T04:10:29.645Z,0
2023-01-12T04:11:43.971Z,0
2023-01-12T04:12:58.237Z,0
2023-01-12T04:14:12.578Z,0
2023-01-12T04:15:26.847Z,0
2023-01-12T04:16:41.322Z,0
2023-01-12T04:19:09.985Z,0
2023-01-12T04:20:23.376Z,0
2023-01-12T04:21:37.795Z,0
2023-01-12T04:22:52.121Z,0
2023-01-12T04:24:05.537Z,0
2023-01-12T04:25:18.914Z,0
2023-01-12T04:26:33.259Z,0
2023-01-12T04:27:47.593Z,0
2023-01-12T04:30:15.349Z,0
2023-01-12T04:31:29.675Z,0
2023-01-12T04:33:58.233Z,0
2023-01-12T04:35:12.650Z,0
2023-01-12T04:36:26.958Z,0
2023-01-12T04:37:41.250Z,0
2023-01-12T04:38:55.526Z,0
2023-01-12T04:40:09.928Z,0
2023-01-12T04:41:24.225Z,0
2023-01-12T04:42:38.503Z,0
2023-01-12T04:43:52.797Z,0
2023-01-12T04:45:07.156Z,1
2023-01-12T04:46:21.441Z,0
2023-01-12T04:47:35.737Z,0
2023-01-12T04:48:50.015Z,0
2023-01-12T04:50:04.413Z,0
2023-01-12T04:51:18.737Z,0
2023-01-12T04:52:33.032Z,0
2023-01-12T04:53:47.298Z,0
2023-01-12T04:55:01.716Z,0
2023-01-12T04:56:16.032Z,0
2023-01-12T04:57:30.308Z,0
2023-01-12T04:58:44.590Z,0
2023-01-12T04:59:59.066Z,0
2023-01-12T05:01:13.404Z,0
2023-01-12T05:02:26.803Z,0
2023-01-12T05:03:41.125Z,0
2023-01-12T05:04:55.549Z,0
2023-01-12T05:06:09.886Z,0
2023-01-12T05:07:24.156Z,1
2023-01-12T05:08:38.504Z,0
2023-01-12T05:11:07.198Z,1
2023-01-12T05:12:21.525Z,0
2023-01-12T05:14:50.199Z,0
2023-01-12T05:16:03.622Z,0
2023-01-12T05:17:17.945Z,0
2023-01-12T05:18:31.339Z,0
2023-01-12T05:19:45.664Z,0
2023-01-12T05:22:14.419Z,0
2023-01-12T05:23:28.748Z,0
2023-01-12T05:24:43.096Z,0
2023-01-12T05:25:57.423Z,0
2023-01-12T05:27:11.830Z,0
2023-01-12T05:28:26.168Z,0
2023-01-12T05:29:39.518Z,0
2023-01-12T05:30:53.815Z,0
2023-01-12T05:32:08.215Z,0
2023-01-12T05:33:22.531Z,0
2023-01-12T05:34:36.814Z,0
2023-01-12T05:35:51.091Z,0
2023-01-12T05:37:05.512Z,0
2023-01-12T05:38:19.830Z,0
2023-01-12T05:39:34.100Z,0
2023-01-12T05:40:48.508Z,0
2023-01-12T05:42:02.785Z,0
2023-01-12T05:43:17.198Z,0
2023-01-12T05:44:31.526Z,0
2023-01-12T05:45:45.799Z,0
2023-01-12T05:47:00.078Z,0
2023-01-12T05:48:14.494Z,0
2023-01-12T05:49:28.818Z,0
2023-01-12T05:50:43.095Z,0
2023-01-12T05:51:57.380Z,0
2023-01-12T05:53:11.792Z,0
2023-01-12T05:54:26.118Z,0
2023-01-12T05:55:40.385Z,0
2023-01-12T05:56:54.679Z,0
2023-01-12T05:58:09.084Z,0
2023-01-12T05:59:23.361Z,1
2023-01-12T06:00:37.637Z,0
2023-01-12T06:03:06.203Z,0
2023-01-12T06:04:20.615Z,0
2023-01-12T06:05:34.934Z,0
2023-01-12T06:08:03.488Z,0
2023-01-12T06:09:17.905Z,0
2023-01-12T06:10:32.225Z,0
2023-01-12T06:11:46.513Z,0
2023-01-12T06:13:00.791Z,0
2023-01-12T06:14:15.182Z,0
2023-01-12T06:15:29.490Z,0
2023-01-12T06:16:43.775Z,0
2023-01-12T06:17:58.043Z,0
2023-01-12T06:19:12.279Z,1
2023-01-12T06:20:26.631Z,0
2023-01-12T06:22:55.179Z,1
2023-01-12T06:24:09.410Z,1
2023-01-12T06:25:23.767Z,0
2023-01-12T06:26:38.071Z,1
2023-01-12T06:27:51.468Z,0
2023-01-12T06:29:04.848Z,0
2023-01-12T06:30:19.199Z,0
2023-01-12T06:31:32.552Z,1
2023-01-12T06:32:45.933Z,0
2023-01-12T06:35:14.607Z,0
2023-01-12T06:36:28.895Z,1
2023-01-12T06:37:43.229Z,0
2023-01-12T06:38:57.638Z,0
2023-01-12T06:40:11.979Z,0
2023-01-12T06:41:26.263Z,1
2023-01-12T06:42:40.596Z,0
2023-01-12T06:43:54.930Z,0
2023-01-12T06:45:09.345Z,0
2023-01-12T06:46:23.638Z,1
2023-01-12T06:47:37.919Z,1
2023-01-12T06:50:05.616Z,0
2023-01-12T06:51:19.897Z,1
2023-01-12T06:52:33.253Z,1
2023-01-12T06:53:46.578Z,1
2023-01-12T06:55:00.877Z,1
2023-01-12T06:56:14.159Z,1
2023-01-12T06:57:28.440Z,0
2023-01-12T06:58:42.849Z,0
2023-01-12T06:59:57.148Z,0
2023-01-12T07:01:11.433Z,0
2023-01-12T07:02:25.715Z,0
2023-01-12T07:03:40.114Z,0
2023-01-12T07:04:54.374Z,2
2023-01-12T07:06:08.591Z,2
2023-01-12T07:07:22.819Z,1
2023-01-12T07:08:37.052Z,1
2023-01-12T07:09:51.347Z,1
2023-01-12T07:11:05.609Z,2
2023-01-12T07:12:19.837Z,2
2023-01-12T07:13:34.063Z,1
2023-01-12T07:14:48.289Z,2
2023-01-12T07:16:02.581Z,5
2023-01-12T07:17:16.824Z,5
2023-01-12T07:18:31.054Z,8
2023-01-12T07:19:45.269Z,10
2023-01-12T07:20:59.512Z,11
2023-01-12T07:22:13.807Z,12
2023-01-12T07:23:28.050Z,20
2023-01-12T07:24:42.269Z,22
2023-01-12T07:25:56.501Z,22
2023-01-12T07:27:10.776Z,20
2023-01-12T07:28:25.074Z,28
2023-01-12T07:30:53.656Z,29
2023-01-12T07:32:06.950Z,30
2023-01-12T07:33:21.250Z,32
2023-01-12T07:34:35.481Z,34
2023-01-12T07:35:49.706Z,45
2023-01-12T07:37:03.940Z,51
2023-01-12T07:38:18.160Z,55
2023-01-12T07:39:32.460Z,55
2023-01-12T07:40:46.704Z,65
2023-01-12T07:42:00.927Z,58
2023-01-12T07:43:15.169Z,50
2023-01-12T07:44:29.382Z,51
2023-01-12T07:45:43.679Z,43
2023-01-12T07:48:12.150Z,42
2023-01-12T07:49:26.372Z,40
2023-01-12T07:50:40.610Z,40
2023-01-12T07:51:54.903Z,44
2023-01-12T07:53:09.145Z,47
2023-01-12T07:54:23.384Z,61
2023-01-12T07:55:37.607Z,68
2023-01-12T07:56:51.819Z,65
2023-01-12T07:59:20.377Z,93
2023-01-12T08:01:48.826Z,137
2023-01-12T08:04:17.407Z,210
2023-01-12T08:05:31.698Z,199
2023-01-12T08:06:45.029Z,164
2023-01-12T08:07:59.300Z,152
2023-01-12T08:09:13.609Z,119
2023-01-12T08:10:27.887Z,108
2023-01-12T08:11:42.171Z,95
2023-01-12T08:12:56.449Z,92
2023-01-12T08:14:10.748Z,90
2023-01-12T08:15:25.045Z,102
2023-01-12T08:16:39.327Z,182
2023-01-12T08:17:52.679Z,268
2023-01-12T08:19:06.000Z,281
2023-01-12T08:20:20.286Z,301
2023-01-12T08:21:34.583Z,214
2023-01-12T08:22:48.854Z,165
2023-01-12T08:24:03.138Z,142
2023-01-12T08:25:17.445Z,105
2023-01-12T08:26:31.731Z,95
2023-01-12T08:27:45.073Z,110
2023-01-12T08:28:58.409Z,114
2023-01-12T08:30:12.695Z,239
2023-01-12T08:31:25.979Z,357
2023-01-12T08:32:40.214Z,342
2023-01-12T08:33:54.513Z,276
2023-01-12T08:35:08.750Z,383
2023-01-12T08:36:22.974Z,352
2023-01-12T08:37:37.216Z,267
2023-01-12T08:38:51.433Z,211
2023-01-12T08:40:05.740Z,204
2023-01-12T08:41:19.978Z,233
2023-01-12T08:42:34.205Z,259
2023-01-12T08:43:48.432Z,314
2023-01-12T08:45:02.664Z,355
2023-01-12T08:46:16.958Z,405
2023-01-12T08:47:31.199Z,259
2023-01-12T08:48:45.433Z,252
2023-01-12T08:49:59.655Z,270
2023-01-12T08:51:13.886Z,392
2023-01-12T08:52:28.174Z,426
2023-01-12T08:53:42.416Z,452
2023-01-12T08:54:56.654Z,772
2023-01-12T08:56:10.882Z,720
2023-01-12T08:57:25.097Z,704
2023-01-12T08:58:39.401Z,442
2023-01-12T08:59:53.634Z,320
2023-01-12T09:01:07.876Z,227
2023-01-12T09:02:22.151Z,194
2023-01-12T09:03:35.444Z,220
2023-01-12T09:04:49.693Z,439
2023-01-12T09:06:03.917Z,497
2023-01-12T09:07:18.148Z,609
2023-01-12T09:08:32.361Z,705
2023-01-12T09:09:46.669Z,477
2023-01-12T09:12:15.134Z,473
2023-01-12T09:13:29.355Z,607
2023-01-12T09:14:43.596Z,612
2023-01-12T09:15:57.886Z,309
2023-01-12T09:17:12.124Z,334
2023-01-12T09:18:26.000Z,360
2023-01-12T09:19:40.582Z,420
2023-01-12T09:20:54.808Z,506
2023-01-12T09:22:09.108Z,526
2023-01-12T09:23:23.352Z,496
2023-01-12T09:24:37.579Z,539
2023-01-12T09:25:51.814Z,609
2023-01-12T09:27:06.026Z,616
2023-01-12T09:28:20.333Z,611
2023-01-12T09:29:34.572Z,753
2023-01-12T09:32:03.020Z,620
2023-01-12T09:33:17.253Z,513
2023-01-12T09:34:31.617Z,587
2023-01-12T09:35:45.903Z,650
2023-01-12T09:37:00.176Z,754
2023-01-12T09:38:13.517Z,834
2023-01-12T09:39:27.811Z,1042
2023-01-12T09:40:42.111Z,1382
2023-01-12T09:41:56.382Z,800
2023-01-12T09:43:10.674Z,718
2023-01-12T09:45:39.262Z,559
2023-01-12T09:46:53.545Z,456
2023-01-12T09:48:06.826Z,466
2023-01-12T09:49:21.062Z,580
2023-01-12T09:50:35.360Z,644
2023-01-12T09:51:49.599Z,624
2023-01-12T09:53:03.832Z,729
2023-01-12T09:54:18.045Z,816
2023-01-12T09:55:32.286Z,763
2023-01-12T09:56:46.581Z,437
2023-01-12T09:58:00.827Z,684
2023-01-12T09:59:15.049Z,768
2023-01-12T10:00:29.281Z,751
2023-01-12T10:01:43.495Z,725
2023-01-12T10:02:57.806Z,582
2023-01-12T10:04:12.049Z,802
2023-01-12T10:05:26.259Z,737
2023-01-12T10:06:40.487Z,695
2023-01-12T10:07:54.725Z,770
2023-01-12T10:09:09.020Z,785
2023-01-12T10:10:23.256Z,752
2023-01-12T10:12:51.713Z,461
2023-01-12T10:14:05.947Z,413
2023-01-12T10:15:20.247Z,327
2023-01-12T10:16:34.478Z,388
2023-01-12T10:17:48.701Z,319
2023-01-12T10:19:03.001Z,331
2023-01-12T10:21:30.614Z,471
2023-01-12T10:22:43.969Z,526
2023-01-12T10:23:57.304Z,574
2023-01-12T10:25:11.589Z,746
2023-01-12T10:26:24.872Z,698
2023-01-12T10:27:39.095Z,783
2023-01-12T10:28:53.402Z,632
2023-01-12T10:30:07.643Z,626
2023-01-12T10:31:21.877Z,1050
2023-01-12T10:32:36.093Z,894
2023-01-12T10:33:50.321Z,891
2023-01-12T10:35:04.622Z,700
2023-01-12T10:36:18.872Z,779
2023-01-12T10:37:33.085Z,812
2023-01-12T10:38:47.309Z,891
2023-01-12T10:40:01.549Z,758
2023-01-12T10:41:15.838Z,867
2023-01-12T10:42:30.081Z,958
2023-01-12T10:43:44.309Z,902
2023-01-12T10:44:58.533Z,888
2023-01-12T10:46:12.763Z,1002
2023-01-12T10:47:27.068Z,902
2023-01-12T10:48:41.303Z,1057
2023-01-12T10:49:55.535Z,1008
2023-01-12T10:51:09.748Z,1034
2023-01-12T10:52:23.989Z,982
2023-01-12T10:53:38.281Z,1259
2023-01-12T10:54:52.523Z,1030
2023-01-12T10:56:06.760Z,971
2023-01-12T10:57:21.045Z,971
2023-01-12T10:58:34.361Z,974
2023-01-12T10:59:48.651Z,952
2023-01-12T11:01:02.942Z,772
2023-01-12T11:02:16.279Z,812
2023-01-12T11:03:30.584Z,688
2023-01-12T11:04:44.880Z,783
2023-01-12T11:05:58.209Z,999
2023-01-12T11:07:12.478Z,750
2023-01-12T11:08:26.790Z,752
2023-01-12T11:09:41.071Z,728
2023-01-12T11:10:55.353Z,1089
2023-01-12T11:12:09.635Z,963
2023-01-12T11:13:23.915Z,912
2023-01-12T11:14:38.214Z,1052
2023-01-12T11:15:52.510Z,794
2023-01-12T11:17:05.846Z,927
2023-01-12T11:18:19.193Z,1077
2023-01-12T11:19:33.467Z,750
2023-01-12T11:20:47.764Z,937
2023-01-12T11:22:02.044Z,811
2023-01-12T11:23:16.328Z,881
2023-01-12T11:24:30.616Z,1119
2023-01-12T11:25:44.000Z,719
2023-01-12T11:26:59.199Z,686
2023-01-12T11:28:13.476Z,710
2023-01-12T11:29:27.758Z,758
2023-01-12T11:30:42.050Z,1304
2023-01-12T11:31:56.331Z,1395
2023-01-12T11:33:10.614Z,1495
2023-01-12T11:34:23.957Z,1564
2023-01-12T11:36:52.540Z,1534
2023-01-12T11:38:06.820Z,1309
2023-01-12T11:39:21.101Z,1440
2023-01-12T11:40:35.393Z,1443
2023-01-12T11:41:49.697Z,1144
2023-01-12T11:43:03.980Z,1481
2023-01-12T11:44:17.277Z,1274
2023-01-12T11:45:31.499Z,1158
2023-01-12T11:46:45.786Z,1145
2023-01-12T11:49:14.269Z,1108
2023-01-12T11:50:28.483Z,1097
2023-01-12T11:51:42.718Z,1031
2023-01-12T11:52:57.025Z,1247
2023-01-12T11:54:11.252Z,912
2023-01-12T11:55:25.484Z,946
2023-01-12T11:56:39.709Z,922
2023-01-12T11:57:53.947Z,878
2023-01-12T11:59:08.239Z,814
2023-01-12T12:00:22.479Z,988
2023-01-12T12:01:36.715Z,793
2023-01-12T12:04:05.151Z,1433
2023-01-12T12:06:33.696Z,959
2023-01-12T12:07:47.929Z,1025
2023-01-12T12:09:02.161Z,937
2023-01-12T12:10:16.389Z,785
2023-01-12T12:11:30.676Z,1284
2023-01-12T12:12:44.915Z,1048
2023-01-12T12:13:59.155Z,1330
2023-01-12T12:15:13.431Z,1051
2023-01-12T12:16:27.727Z,1069
2023-01-12T12:17:42.026Z,1422
2023-01-12T12:18:56.293Z,1404
2023-01-12T12:20:09.628Z,985
2023-01-12T12:22:38.211Z,905
2023-01-12T12:23:52.500Z,1004
2023-01-12T12:25:06.791Z,1009
2023-01-12T12:26:21.069Z,1193
2023-01-12T12:27:35.358Z,1607
2023-01-12T12:28:49.659Z,1446
2023-01-12T12:30:03.935Z,1465
2023-01-12T12:33:46.780Z,1152
2023-01-12T12:36:15.377Z,1129
2023-01-12T12:37:28.725Z,960
2023-01-12T12:38:43.000Z,1120
2023-01-12T12:39:57.303Z,967
2023-01-12T12:41:11.586Z,914
2023-01-12T12:42:24.944Z,825
2023-01-12T12:43:38.272Z,861
2023-01-12T12:44:52.557Z,1094
2023-01-12T12:46:06.833Z,932
2023-01-12T12:47:21.118Z,658
2023-01-12T12:48:35.412Z,758
2023-01-12T12:49:49.713Z,623
2023-01-12T12:51:03.986Z,488
2023-01-12T12:52:18.283Z,743
2023-01-12T12:53:32.566Z,791
2023-01-12T12:57:15.432Z,638
2023-01-12T12:58:28.785Z,656
2023-01-12T13:00:56.392Z,517
2023-01-12T13:02:10.683Z,701
2023-01-12T13:03:24.974Z,772
2023-01-12T13:04:39.254Z,624
2023-01-12T13:05:53.556Z,811
2023-01-12T13:07:07.832Z,952
2023-01-12T13:08:22.124Z,738
2023-01-12T13:09:36.396Z,746
2023-01-12T13:10:50.684Z,773
2023-01-12T13:12:04.975Z,849
2023-01-12T13:13:19.262Z,863
2023-01-12T13:14:32.619Z,757
2023-01-12T13:15:45.952Z,743
2023-01-12T13:18:14.515Z,809
2023-01-12T13:19:28.800Z,1415
2023-01-12T13:20:43.077Z,1315
2023-01-12T13:21:57.393Z,1091
2023-01-12T13:23:11.669Z,1100
2023-01-12T13:24:25.958Z,1020
2023-01-12T13:25:40.247Z,1071
2023-01-12T13:26:54.516Z,1092
2023-01-12T13:28:08.828Z,642
2023-01-12T13:29:23.102Z,846
2023-01-12T13:30:37.382Z,854
2023-01-12T13:31:50.727Z,1063
2023-01-12T13:33:05.016Z,740
2023-01-12T13:34:19.311Z,720
2023-01-12T13:36:46.832Z,1105
2023-01-12T13:38:01.115Z,872
2023-01-12T13:40:29.588Z,750
2023-01-12T13:41:43.820Z,753
2023-01-12T13:44:12.350Z,586
2023-01-12T13:45:26.593Z,700
2023-01-12T13:49:09.266Z,620
2023-01-12T13:50:23.560Z,573
2023-01-12T13:51:37.803Z,646
2023-01-12T13:52:52.041Z,664
2023-01-12T13:54:06.260Z,795
2023-01-12T13:55:20.494Z,642
2023-01-12T13:56:34.786Z,914
2023-01-12T13:57:49.034Z,898
2023-01-12T14:00:17.480Z,771
2023-01-12T14:02:46.014Z,981
2023-01-12T14:04:00.256Z,866
2023-01-12T14:05:14.487Z,674
2023-01-12T14:07:43.048Z,915
2023-01-12T14:08:57.345Z,621
2023-01-12T14:10:11.623Z,527
2023-01-12T14:11:24.967Z,703
2023-01-12T14:13:53.563Z,552
2023-01-12T14:15:07.835Z,542
2023-01-12T14:16:22.123Z,477
2023-01-12T14:17:36.403Z,483
2023-01-12T14:18:50.696Z,311
2023-01-12T14:20:04.997Z,592
2023-01-12T14:22:33.564Z,425
2023-01-12T14:23:46.905Z,688
2023-01-12T14:25:01.209Z,546
2023-01-12T14:26:15.502Z,513
2023-01-12T14:27:28.829Z,546
2023-01-12T14:29:57.407Z,680
2023-01-12T14:31:11.683Z,602
2023-01-12T14:32:25.982Z,562
2023-01-12T14:33:40.261Z,564
2023-01-12T14:36:08.835Z,495
2023-01-12T14:37:23.133Z,564
2023-01-12T14:38:37.409Z,474
2023-01-12T14:39:51.689Z,463
2023-01-12T14:42:20.282Z,487
2023-01-12T14:43:34.689Z,426
2023-01-12T14:44:48.970Z,451
2023-01-12T14:47:17.537Z,391
2023-01-12T14:48:31.837Z,381
2023-01-12T14:49:46.119Z,488
2023-01-12T14:52:14.686Z,372
2023-01-12T14:53:28.977Z,251
2023-01-12T14:54:43.272Z,311
2023-01-12T14:55:57.557Z,225
2023-01-12T14:57:10.848Z,251
2023-01-12T14:58:25.073Z,235
2023-01-12T14:59:39.384Z,215
2023-01-12T15:00:53.615Z,267
2023-01-12T15:02:07.852Z,198
2023-01-12T15:03:22.072Z,208
2023-01-12T15:04:36.291Z,185
2023-01-12T15:05:50.593Z,190
2023-01-12T15:07:04.839Z,183
2023-01-12T15:08:19.068Z,194
2023-01-12T15:09:33.282Z,132
2023-01-12T15:12:01.818Z,167
2023-01-12T15:13:16.057Z,131
2023-01-12T15:14:30.290Z,113
2023-01-12T15:15:44.509Z,94
2023-01-12T15:16:58.741Z,85
2023-01-12T15:19:27.288Z,111
2023-01-12T15:20:41.512Z,116
2023-01-12T15:21:55.724Z,129
2023-01-12T15:23:09.950Z,101
2023-01-12T15:24:24.267Z,127
2023-01-12T15:26:52.720Z,129
2023-01-12T15:28:07.016Z,104
2023-01-12T15:29:20.344Z,78
2023-01-12T15:30:34.630Z,68
2023-01-12T15:31:48.920Z,74
2023-01-12T15:33:03.204Z,78
2023-01-12T15:34:17.475Z,82
2023-01-12T15:35:31.786Z,71
2023-01-12T15:36:46.073Z,53
2023-01-12T15:38:00.345Z,42
2023-01-12T15:40:28.907Z,38
2023-01-12T15:44:11.775Z,32
2023-01-12T15:45:25.117Z,30
2023-01-12T15:47:53.702Z,13
2023-01-12T15:49:07.978Z,17
2023-01-12T15:50:22.269Z,16
2023-01-12T15:51:36.541Z,9
2023-01-12T15:52:50.846Z,9
2023-01-12T15:54:05.138Z,13
2023-01-12T15:55:19.423Z,7
2023-01-12T15:56:33.697Z,10
2023-01-12T15:57:47.986Z,6
2023-01-12T16:00:16.568Z,3
2023-01-12T16:01:29.857Z,3
2023-01-12T16:02:44.088Z,1
2023-01-12T16:03:58.387Z,2
2023-01-12T16:05:12.625Z,2
2023-01-12T16:07:41.144Z,0
2023-01-12T16:08:55.421Z,0
2023-01-12T16:10:09.819Z,0
2023-01-12T16:11:24.069Z,1
2023-01-12T16:12:38.285Z,1
2023-01-12T16:13:52.528Z,1
2023-01-12T16:15:06.742Z,1
2023-01-12T16:16:21.045Z,1
2023-01-12T16:17:35.279Z,1
2023-01-12T16:18:49.504Z,1
2023-01-12T16:20:03.733Z,1
2023-01-12T16:21:18.020Z,0
2023-01-12T16:22:32.372Z,1
2023-01-12T16:23:46.619Z,1
2023-01-12T16:25:00.846Z,1
2023-01-12T16:27:29.404Z,0
2023-01-12T16:28:43.774Z,1
2023-01-12T16:31:12.379Z,0
2023-01-12T16:32:26.718Z,0
2023-01-12T16:33:41.122Z,0
2023-01-12T16:34:55.465Z,0
2023-01-12T16:36:08.822Z,0
2023-01-12T16:38:37.501Z,0
2023-01-12T16:39:51.829Z,0
2023-01-12T16:41:06.106Z,0
2023-01-12T16:42:20.397Z,0
2023-01-12T16:43:34.788Z,0
2023-01-12T16:44:49.116Z,0
2023-01-12T16:46:03.392Z,0
2023-01-12T16:47:17.628Z,1
2023-01-12T16:48:32.045Z,0
2023-01-12T16:51:00.563Z,0
2023-01-12T16:52:14.884Z,0
2023-01-12T16:53:29.106Z,1
2023-01-12T16:54:43.498Z,0
2023-01-12T16:55:57.816Z,0
2023-01-12T16:57:12.100Z,0
2023-01-12T16:58:26.384Z,0
2023-01-12T16:59:40.794Z,0
2023-01-12T17:00:55.118Z,0
2023-01-12T17:02:09.394Z,0
2023-01-12T17:03:23.672Z,0
2023-01-12T17:04:38.085Z,0
2023-01-12T17:05:52.409Z,0
2023-01-12T17:07:06.752Z,0
2023-01-12T17:08:20.131Z,0
2023-01-12T17:09:34.459Z,0
2023-01-12T17:10:47.816Z,0
2023-01-12T17:12:02.107Z,0
2023-01-12T17:13:16.504Z,0
2023-01-12T17:14:30.832Z,0
2023-01-12T17:15:45.104Z,0
2023-01-12T17:16:59.385Z,0
2023-01-12T17:18:13.801Z,0
2023-01-12T17:19:28.116Z,0
2023-01-12T17:20:42.412Z,0
2023-01-12T17:21:56.689Z,0
2023-01-12T17:23:11.096Z,0
2023-01-12T17:24:25.418Z,0
2023-01-12T17:26:53.982Z,0
2023-01-12T17:28:08.345Z,1
2023-01-12T17:29:22.634Z,0
2023-01-12T17:30:36.863Z,1
2023-01-12T17:31:51.149Z,0
2023-01-12T17:33:05.418Z,0
2023-01-12T17:34:19.786Z,1
2023-01-12T17:35:34.024Z,1
2023-01-12T17:38:02.533Z,0
2023-01-12T17:39:16.769Z,1
2023-01-12T17:40:31.177Z,0
2023-01-12T17:41:45.557Z,0
2023-01-12T17:42:58.936Z,0
2023-01-12T17:44:12.296Z,0
2023-01-12T17:45:26.613Z,0
2023-01-12T17:46:40.893Z,0
2023-01-12T17:47:55.211Z,0
2023-01-12T17:49:09.490Z,0
2023-01-12T17:50:23.902Z,0
2023-01-12T17:51:38.207Z,0
2023-01-12T17:52:52.490Z,0
2023-01-12T17:54:06.800Z,0
2023-01-12T17:55:21.084Z,0
2023-01-12T17:56:35.501Z,0
2023-01-12T17:57:49.823Z,0
2023-01-12T17:59:04.101Z,0
2023-01-12T18:00:18.376Z,0
2023-01-12T18:01:32.789Z,0
2023-01-12T18:02:47.083Z,0
2023-01-12T18:04:01.361Z,0
2023-01-12T18:05:15.634Z,0
2023-01-12T18:06:30.040Z,0
2023-01-12T18:07:44.376Z,0
2023-01-12T18:08:58.661Z,0
2023-01-12T18:10:12.934Z,0
2023-01-12T18:11:27.344Z,0
2023-01-12T18:12:41.656Z,0
2023-01-12T18:13:55.945Z,0
2023-01-12T18:15:10.294Z,0
2023-01-12T18:16:24.691Z,0
2023-01-12T18:17:39.035Z,0
2023-01-12T18:18:52.373Z,0
2023-01-12T18:20:06.662Z,0
2023-01-12T18:21:21.010Z,1
2023-01-12T18:22:35.344Z,0
2023-01-12T18:23:49.609Z,0
2023-01-12T18:25:03.836Z,1
2023-01-12T18:26:18.261Z,0
2023-01-12T18:27:32.541Z,0
2023-01-12T18:28:46.820Z,0
2023-01-12T18:30:01.100Z,1
2023-01-12T18:31:15.415Z,1
2023-01-12T18:32:29.698Z,0
2023-01-12T18:33:43.976Z,0
2023-01-12T18:34:58.225Z,1
2023-01-12T18:36:12.570Z,0
2023-01-12T18:37:26.898Z,0
2023-01-12T18:38:41.173Z,0
2023-01-12T18:39:55.417Z,1
2023-01-12T18:41:09.779Z,0
2023-01-12T18:42:24.092Z,0
2023-01-12T18:43:38.382Z,0
2023-01-12T18:44:52.620Z,1
2023-01-12T18:47:21.279Z,0
2023-01-12T18:49:49.911Z,0
2023-01-12T18:51:04.313Z,0
2023-01-12T18:52:18.660Z,0
2023-01-12T18:53:32.039Z,0
2023-01-12T18:54:46.377Z,0
2023-01-12T18:56:00.797Z,0
2023-01-12T18:57:15.096Z,1
2023-01-12T18:58:29.436Z,0
2023-01-12T18:59:43.777Z,0
2023-01-12T19:00:58.116Z,0
2023-01-12T19:02:12.515Z,0
2023-01-12T19:03:26.850Z,0
2023-01-12T19:04:41.192Z,0
2023-01-12T19:05:54.608Z,0
2023-01-12T19:07:09.015Z,0
2023-01-12T19:09:37.681Z,0
2023-01-12T19:10:51.072Z,0
2023-01-12T19:12:05.426Z,1
2023-01-12T19:13:19.779Z,0